Time;durP1;ratioP1;P1;durP2;ratioP2;P2;SDS_P1;SDS_P2;PMS_P1;PMS_P2;Temp;Humidity;BMP_temperature;BMP_pressure;BME280_temperature;BME280_humidity;BME280_pressure;Samples;Min_cycle;Max_cycle;Signal;HPM_P1;HPM_P2
2022/09/12 00:01:57;;;;;;;12.65;9.57;;;14.40;99.90;;;;;;5039832;28;20102;-84
2022/09/12 00:04:23;;;;;;;10.32;8.88;;;14.40;99.90;;;;;;5056946;28;20041;-84
2022/09/12 00:06:49;;;;;;;10.88;9.88;;;14.40;99.90;;;;;;5049278;28;20068;-85
2022/09/12 00:09:15;;;;;;;9.98;8.98;;;14.50;99.90;;;;;;5056011;28;20480;-84
2022/09/12 00:11:43;;;;;;;10.52;9.50;;;14.40;99.90;;;;;;5023078;28;20052;-84
2022/09/12 00:14:13;;;;;;;12.07;10.80;;;14.40;99.90;;;;;;5052473;28;20059;-84
2022/09/12 00:16:39;;;;;;;10.13;8.82;;;14.40;99.90;;;;;;5056984;28;20098;-84
2022/09/12 00:19:09;;;;;;;11.20;9.73;;;14.30;99.90;;;;;;5050772;28;20052;-84
2022/09/12 00:21:37;;;;;;;9.82;8.65;;;14.30;99.90;;;;;;5065450;28;20341;-84
2022/09/12 00:24:03;;;;;;;12.02;10.82;;;14.30;99.90;;;;;;5072025;28;20064;-84
2022/09/12 00:26:29;;;;;;;11.35;10.15;;;14.30;99.90;;;;;;5055773;28;20052;-84
2022/09/12 00:28:55;;;;;;;11.70;10.48;;;14.20;99.90;;;;;;5047595;28;20504;-84
2022/09/12 00:31:25;;;;;;;12.40;11.20;;;14.20;99.90;;;;;;5055809;28;20049;-84
2022/09/12 00:33:54;;;;;;;11.80;10.60;;;14.20;99.90;;;;;;5072687;28;20128;-84
2022/09/12 00:36:22;;;;;;;12.70;11.38;;;14.10;99.90;;;;;;5072612;28;20052;-84
2022/09/12 00:38:49;;;;;;;13.20;11.80;;;14.20;99.90;;;;;;5050003;28;20163;-84
2022/09/12 00:41:22;;;;;;;11.60;10.27;;;14.10;99.90;;;;;;5052907;28;20388;-84
2022/09/12 00:44:15;;;;;;;12.20;11.00;;;14.10;99.90;;;;;;5054788;28;20057;-84
2022/09/12 00:46:45;;;;;;;12.18;10.98;;;14.00;99.90;;;;;;5040914;28;20071;-84
2022/09/12 00:49:22;;;;;;;14.00;11.02;;;13.90;99.90;;;;;;5044761;28;20087;-84
2022/09/12 00:51:52;;;;;;;12.10;10.90;;;13.90;99.90;;;;;;5054960;28;20053;-84
2022/09/12 00:54:23;;;;;;;14.52;12.93;;;13.90;99.90;;;;;;5049450;28;20051;-84
2022/09/12 00:56:53;;;;;;;12.15;10.85;;;13.90;99.90;;;;;;5042607;28;20549;-84
2022/09/12 00:59:35;;;;;;;13.15;10.48;;;13.90;99.90;;;;;;5052635;28;20067;-84
2022/09/12 01:02:02;;;;;;;13.90;12.50;;;13.90;99.90;;;;;;5052330;28;20044;-84
2022/09/12 01:04:28;;;;;;;13.15;11.88;;;13.90;99.90;;;;;;5062565;28;20114;-84
2022/09/12 01:06:56;;;;;;;13.50;12.10;;;13.80;99.90;;;;;;5066983;28;20041;-84
2022/09/12 01:09:24;;;;;;;12.52;11.23;;;13.80;99.90;;;;;;5049847;28;20051;-84
2022/09/12 01:11:51;;;;;;;12.35;11.15;;;13.80;99.90;;;;;;5067320;28;20094;-84
2022/09/12 01:14:18;;;;;;;14.25;12.93;;;13.80;99.90;;;;;;5056922;28;20042;-84
2022/09/12 01:16:49;;;;;;;16.58;12.50;;;13.80;99.90;;;;;;5069846;28;20130;-84
2022/09/12 01:19:27;;;;;;;12.15;10.93;;;13.70;99.90;;;;;;5065964;28;20040;-84
2022/09/12 01:22:30;;;;;;;13.90;12.48;;;13.70;99.90;;;;;;5061557;28;20053;-85
2022/09/12 01:25:30;;;;;;;13.50;12.15;;;13.70;99.90;;;;;;5058950;28;20044;-84
2022/09/12 01:28:10;;;;;;;14.23;12.75;;;13.60;99.90;;;;;;5050837;28;20127;-84
2022/09/12 01:30:50;;;;;;;13.90;12.50;;;13.60;99.90;;;;;;5082412;28;20036;-84
2022/09/12 01:33:33;;;;;;;17.58;11.70;;;13.60;99.90;;;;;;5075637;28;20044;-84
2022/09/12 01:36:23;;;;;;;12.60;11.35;;;13.60;99.90;;;;;;5055303;28;20052;-84
2022/09/12 01:39:00;;;;;;;12.65;11.35;;;13.50;99.90;;;;;;5069692;28;20048;-84
2022/09/12 01:41:28;;;;;;;13.15;11.85;;;13.50;99.90;;;;;;5053663;28;20128;-84
2022/09/12 01:44:15;;;;;;;13.20;12.10;;;13.50;99.90;;;;;;5077650;28;20052;-83
2022/09/12 01:46:59;;;;;;;12.80;11.70;;;13.50;99.90;;;;;;5052822;28;20140;-84
2022/09/12 01:50:05;;;;;;;13.07;11.88;;;13.50;99.90;;;;;;5074169;28;20040;-84
2022/09/12 01:52:42;;;;;;;13.07;11.85;;;13.50;99.90;;;;;;5055593;28;20072;-84
2022/09/12 01:55:11;;;;;;;15.00;13.00;;;13.40;99.90;;;;;;5056947;28;20586;-84
2022/09/12 01:57:53;;;;;;;14.30;12.90;;;13.40;99.90;;;;;;5050531;28;20049;-84
2022/09/12 02:00:19;;;;;;;14.13;12.85;;;13.50;99.90;;;;;;5078251;28;20045;-84
2022/09/12 02:02:49;;;;;;;14.38;13.07;;;13.40;99.90;;;;;;5051535;28;20521;-84
2022/09/12 02:05:32;;;;;;;15.55;13.50;;;13.40;99.90;;;;;;5046286;28;20041;-84
2022/09/12 02:08:07;;;;;;;13.85;12.65;;;13.40;99.90;;;;;;5056465;28;20132;-84
2022/09/12 02:10:46;;;;;;;14.30;12.73;;;13.40;99.90;;;;;;5079539;28;20074;-84
2022/09/12 02:13:17;;;;;;;13.93;12.60;;;13.30;99.90;;;;;;5066385;28;20439;-84
2022/09/12 02:15:48;;;;;;;15.88;12.48;;;13.30;99.90;;;;;;5081935;28;20050;-84
2022/09/12 02:18:17;;;;;;;13.55;12.25;;;13.30;99.90;;;;;;5058622;28;20044;-84
2022/09/12 02:20:45;;;;;;;17.30;15.63;;;13.30;99.90;;;;;;5068631;28;20056;-84
2022/09/12 02:23:17;;;;;;;16.10;14.40;;;13.30;99.90;;;;;;5054350;28;20048;-84
2022/09/12 02:25:46;;;;;;;16.02;14.50;;;13.30;99.90;;;;;;5056492;28;20049;-84
2022/09/12 02:28:20;;;;;;;17.98;16.25;;;13.30;99.90;;;;;;5049608;28;20075;-84
2022/09/12 02:31:03;;;;;;;18.33;16.65;;;13.30;99.90;;;;;;5055305;28;20088;-84
2022/09/12 02:33:37;;;;;;;15.82;14.32;;;13.30;99.90;;;;;;5036566;28;20077;-84
2022/09/12 02:36:31;;;;;;;15.15;13.65;;;13.20;99.90;;;;;;5051237;28;20047;-84
2022/09/12 02:38:57;;;;;;;;;;;13.20;99.90;;;;;;5060102;28;20483;-84
2022/09/12 02:41:23;;;;;;;16.02;14.55;;;13.00;99.90;;;;;;5039678;28;20039;-84
2022/09/12 02:43:51;;;;;;;16.35;14.90;;;13.00;99.90;;;;;;5079595;28;20052;-84
2022/09/12 02:46:38;;;;;;;16.27;14.77;;;13.10;99.90;;;;;;5077058;28;20044;-84
2022/09/12 02:49:04;;;;;;;17.13;15.50;;;13.00;99.90;;;;;;5071432;28;20078;-85
2022/09/12 02:51:30;;;;;;;16.95;15.43;;;13.00;99.90;;;;;;5050707;28;20053;-84
2022/09/12 02:53:56;;;;;;;18.77;15.07;;;13.10;99.90;;;;;;5008983;28;20467;-84
2022/09/12 02:56:31;;;;;;;18.70;16.70;;;13.10;99.90;;;;;;5042946;28;20045;-84
2022/09/12 02:59:06;;;;;;;16.67;14.98;;;13.10;99.90;;;;;;5056605;28;20098;-84
2022/09/12 03:01:38;;;;;;;18.40;16.63;;;13.00;99.90;;;;;;5074901;28;20044;-84
2022/09/12 03:04:21;;;;;;;22.08;19.77;;;13.00;99.90;;;;;;5054470;28;20052;-84
2022/09/12 03:07:11;;;;;;;18.13;16.38;;;13.00;99.90;;;;;;5065555;28;20037;-84
2022/09/12 03:09:41;;;;;;;21.90;19.70;;;13.00;99.90;;;;;;5089438;28;20092;-84
2022/09/12 03:12:30;;;;;;;17.90;15.85;;;13.00;99.90;;;;;;5072058;28;20049;-84
2022/09/12 03:15:35;;;;;;;18.58;16.77;;;12.90;99.90;;;;;;5076545;28;20048;-84
2022/09/12 03:18:26;;;;;;;17.17;15.43;;;13.00;99.90;;;;;;5041524;28;20056;-84
2022/09/12 03:21:19;;;;;;;17.58;15.85;;;12.90;99.90;;;;;;5059833;28;20053;-84
2022/09/12 03:24:16;;;;;;;21.33;16.40;;;12.90;99.90;;;;;;5092226;28;20041;-84
2022/09/12 03:26:45;;;;;;;17.85;16.15;;;12.90;99.90;;;;;;5077392;28;20052;-85
2022/09/12 03:29:12;;;;;;;30.77;23.73;;;12.80;99.90;;;;;;5043748;28;20049;-84
2022/09/12 03:31:49;;;;;;;20.73;18.73;;;12.80;99.90;;;;;;5050639;28;20152;-84
2022/09/12 03:34:14;;;;;;;19.52;17.70;;;12.80;99.90;;;;;;5079534;28;20059;-84
2022/09/12 03:36:40;;;;;;;19.70;17.70;;;12.70;99.90;;;;;;5071420;28;20040;-84
2022/09/12 03:39:06;;;;;;;19.90;18.10;;;12.80;99.90;;;;;;5041743;28;20131;-85
2022/09/12 03:41:31;;;;;;;19.50;16.77;;;12.70;99.90;;;;;;5028582;28;20058;-84
2022/09/12 03:43:57;;;;;;;19.58;17.25;;;12.70;99.90;;;;;;5019784;28;20083;-84
2022/09/12 03:46:23;;;;;;;24.30;19.08;;;12.70;99.90;;;;;;5028683;28;20041;-84
2022/09/12 03:48:49;;;;;;;18.38;16.48;;;12.70;99.90;;;;;;5055367;28;20041;-84
2022/09/12 03:51:15;;;;;;;17.02;15.35;;;12.70;99.90;;;;;;5067262;28;20084;-84
2022/09/12 03:53:41;;;;;;;22.25;19.85;;;12.60;99.90;;;;;;5033838;28;20491;-84
2022/09/12 03:56:11;;;;;;;22.02;19.50;;;12.70;99.90;;;;;;5055478;28;20109;-85
2022/09/12 03:58:37;;;;;;;21.75;19.63;;;12.60;99.90;;;;;;5072550;28;20393;-84
2022/09/12 04:01:11;;;;;;;20.08;18.23;;;12.60;99.90;;;;;;5040326;28;20117;-84
2022/09/12 04:03:42;;;;;;;23.67;21.30;;;12.60;99.90;;;;;;5070866;28;20044;-85
2022/09/12 04:06:09;;;;;;;21.42;19.33;;;12.60;99.90;;;;;;5063791;28;20049;-84
2022/09/12 04:08:36;;;;;;;22.80;20.45;;;12.60;99.90;;;;;;5062906;28;20036;-84
2022/09/12 04:11:13;;;;;;;22.27;20.00;;;12.60;99.90;;;;;;5055891;28;20056;-84
2022/09/12 04:13:41;;;;;;;25.35;21.25;;;12.70;99.90;;;;;;5050314;28;20385;-84
2022/09/12 04:16:07;;;;;;;22.70;20.35;;;12.60;99.90;;;;;;5060068;28;20048;-85
2022/09/12 04:18:33;;;;;;;23.42;20.88;;;12.60;99.90;;;;;;5055273;28;20044;-84
2022/09/12 04:21:07;;;;;;;22.45;20.27;;;12.60;99.90;;;;;;5068022;28;20045;-84
2022/09/12 04:23:33;;;;;;;;;;;12.60;99.90;;;;;;5055615;28;20043;-85
2022/09/12 04:26:02;;;;;;;28.95;22.60;;;12.60;99.90;;;;;;5041182;28;19921;-84
2022/09/12 04:28:28;;;;;;;24.80;22.30;;;12.60;99.90;;;;;;5067133;28;20045;-84
2022/09/12 04:30:55;;;;;;;24.30;21.90;;;12.60;99.90;;;;;;5046007;28;20489;-84
2022/09/12 04:33:21;;;;;;;23.48;21.17;;;12.60;99.90;;;;;;5039250;28;20056;-84
2022/09/12 04:35:47;;;;;;;23.75;21.30;;;12.60;99.90;;;;;;5054090;28;20048;-84
2022/09/12 04:38:13;;;;;;;25.30;22.80;;;12.60;99.90;;;;;;5067923;28;20120;-85
2022/09/12 04:40:39;;;;;;;28.25;25.45;;;12.60;99.90;;;;;;5052017;28;20049;-84
2022/09/12 04:43:05;;;;;;;29.13;26.13;;;12.60;99.90;;;;;;5044982;28;20347;-85
2022/09/12 04:45:32;;;;;;;28.17;25.35;;;12.60;99.90;;;;;;5085650;28;20079;-84
2022/09/12 04:47:58;;;;;;;27.20;24.35;;;12.70;99.90;;;;;;5090243;28;20404;-84
2022/09/12 04:50:24;;;;;;;29.58;26.30;;;12.70;99.90;;;;;;5068581;28;20442;-84
2022/09/12 04:52:51;;;;;;;31.67;28.27;;;12.70;99.90;;;;;;5092542;28;20048;-84
2022/09/12 04:55:16;;;;;;;30.17;26.95;;;12.70;99.90;;;;;;5074552;28;20043;-86
2022/09/12 04:57:42;;;;;;;26.60;23.92;;;12.80;99.90;;;;;;5060769;28;20127;-85
2022/09/12 05:00:13;;;;;;;27.23;24.42;;;12.80;99.90;;;;;;5063009;28;20811;-85
2022/09/12 05:02:39;;;;;;;29.67;26.48;;;12.80;99.90;;;;;;5062146;28;20051;-84
2022/09/12 05:05:06;;;;;;;32.33;28.17;;;12.90;99.90;;;;;;5072772;28;20040;-84
2022/09/12 05:07:32;;;;;;;28.23;25.20;;;12.90;99.90;;;;;;5083579;28;20475;-84
2022/09/12 05:09:57;;;;;;;31.83;28.33;;;13.00;99.90;;;;;;5095283;28;20183;-84
2022/09/12 05:12:23;;;;;;;32.72;29.08;;;13.00;99.90;;;;;;5075126;28;20039;-84
2022/09/12 05:14:49;;;;;;;30.83;27.45;;;13.00;99.90;;;;;;5090052;28;20124;-85
2022/09/12 05:17:15;;;;;;;30.02;26.83;;;13.10;99.90;;;;;;5079639;28;20483;-85
2022/09/12 05:19:41;;;;;;;30.63;27.42;;;13.10;99.90;;;;;;5077498;28;20454;-85
2022/09/12 05:22:07;;;;;;;30.60;27.40;;;13.20;99.90;;;;;;5061186;28;20051;-84
2022/09/12 05:24:34;;;;;;;34.13;27.92;;;13.20;99.90;;;;;;5065312;28;20032;-85
2022/09/12 05:26:59;;;;;;;30.52;26.90;;;13.30;99.90;;;;;;5060197;28;20047;-84
2022/09/12 05:29:25;;;;;;;34.03;28.35;;;13.30;99.90;;;;;;5078247;28;20066;-84
2022/09/12 05:31:51;;;;;;;32.42;28.85;;;13.30;99.90;;;;;;5078336;28;20038;-85
2022/09/12 05:34:18;;;;;;;33.25;28.88;;;13.40;99.90;;;;;;5061774;28;20071;-84
2022/09/12 05:36:44;;;;;;;32.13;27.88;;;13.40;99.90;;;;;;5084893;28;20035;-84
2022/09/12 05:39:09;;;;;;;41.67;32.95;;;13.40;99.90;;;;;;5063410;28;20543;-85
2022/09/12 05:41:35;;;;;;;30.92;27.73;;;13.50;99.90;;;;;;5077942;28;20130;-85
2022/09/12 05:44:06;;;;;;;32.78;29.15;;;13.50;99.90;;;;;;5045472;28;20051;-85
2022/09/12 05:46:38;;;;;;;31.95;28.60;;;13.50;99.90;;;;;;5089223;28;20055;-85
2022/09/12 05:49:06;;;;;;;34.40;30.00;;;13.50;99.90;;;;;;5062487;28;20059;-85
2022/09/12 05:51:35;;;;;;;32.72;29.17;;;13.50;99.90;;;;;;5073700;28;20082;-84
2022/09/12 05:54:02;;;;;;;33.17;28.75;;;13.50;99.90;;;;;;5077498;28;20044;-85
2022/09/12 05:56:30;;;;;;;31.67;28.23;;;13.50;99.90;;;;;;5069904;28;20049;-84
2022/09/12 05:59:02;;;;;;;31.83;28.35;;;13.50;99.90;;;;;;5074477;28;20040;-85
2022/09/12 06:01:29;;;;;;;32.15;28.60;;;13.60;99.90;;;;;;5093047;28;20058;-85
2022/09/12 06:03:56;;;;;;;33.33;29.15;;;13.60;99.90;;;;;;5043689;28;20166;-84
2022/09/12 06:06:24;;;;;;;32.78;28.25;;;13.70;99.90;;;;;;5064674;28;20036;-84
2022/09/12 06:08:56;;;;;;;33.55;28.77;;;13.60;99.90;;;;;;5044580;28;20047;-85
2022/09/12 06:11:30;;;;;;;34.17;30.48;;;13.60;99.90;;;;;;5094626;28;20125;-85
2022/09/12 06:13:57;;;;;;;36.83;31.10;;;13.60;99.90;;;;;;5063439;28;20533;-84
2022/09/12 06:16:31;;;;;;;35.33;29.52;;;13.70;99.90;;;;;;5075591;28;20494;-84
2022/09/12 06:19:02;;;;;;;35.58;30.88;;;13.80;99.90;;;;;;5091200;28;20043;-84
2022/09/12 06:21:34;;;;;;;30.95;27.65;;;13.80;99.90;;;;;;5071254;28;20047;-85
2022/09/12 06:24:00;;;;;;;32.10;28.52;;;13.80;99.90;;;;;;5094810;28;20097;-84
2022/09/12 06:26:28;;;;;;;33.17;28.80;;;13.80;99.90;;;;;;5101135;28;20054;-84
2022/09/12 06:28:55;;;;;;;37.85;32.35;;;13.90;99.90;;;;;;5103248;28;20051;-85
2022/09/12 06:31:24;;;;;;;39.55;34.20;;;13.90;99.90;;;;;;5070741;28;20053;-85
2022/09/12 06:33:51;;;;;;;34.83;30.77;;;14.00;99.90;;;;;;5079974;28;20468;-85
2022/09/12 06:36:25;;;;;;;35.63;30.85;;;14.00;99.90;;;;;;5090942;28;20040;-85
2022/09/12 06:38:59;;;;;;;36.28;30.92;;;14.10;99.90;;;;;;5080115;28;20050;-85
2022/09/12 06:41:26;;;;;;;37.97;32.40;;;14.10;99.90;;;;;;5070811;28;20048;-84
2022/09/12 06:43:52;;;;;;;40.83;33.25;;;14.20;99.90;;;;;;5073942;28;20039;-84
2022/09/12 06:46:21;;;;;;;42.38;35.70;;;14.20;99.90;;;;;;5090085;28;20134;-85
2022/09/12 06:48:47;;;;;;;39.28;33.35;;;14.20;99.90;;;;;;5080762;28;20044;-85
2022/09/12 06:51:15;;;;;;;38.10;31.90;;;14.30;99.90;;;;;;5096033;28;20046;-85
2022/09/12 06:53:42;;;;;;;36.95;32.42;;;14.30;99.90;;;;;;5079542;28;20040;-85
2022/09/12 06:56:13;;;;;;;39.40;32.95;;;14.40;99.90;;;;;;5080490;28;20071;-85
2022/09/12 06:58:40;;;;;;;43.60;34.92;;;14.40;99.90;;;;;;5078515;28;20395;-84
2022/09/12 07:01:16;;;;;;;37.63;32.92;;;14.50;99.90;;;;;;5096126;28;20104;-84
2022/09/12 07:03:45;;;;;;;38.25;32.83;;;14.50;99.90;;;;;;5101321;28;20039;-84
2022/09/12 07:06:13;;;;;;;40.75;35.10;;;14.50;99.90;;;;;;5096767;28;20087;-85
2022/09/12 07:08:39;;;;;;;39.03;34.67;;;14.60;99.90;;;;;;5090159;28;20051;-86
2022/09/12 07:11:18;;;;;;;41.45;35.08;;;14.60;99.90;;;;;;5100398;28;20040;-86
2022/09/12 07:13:49;;;;;;;45.90;37.05;;;14.70;99.90;;;;;;5119239;28;20427;-87
2022/09/12 07:16:16;;;;;;;44.95;37.33;;;14.70;99.90;;;;;;5099574;28;20047;-85
2022/09/12 07:18:42;;;;;;;49.33;39.05;;;14.80;99.90;;;;;;5093103;28;20071;-85
2022/09/12 07:21:14;;;;;;;47.15;38.20;;;14.80;99.90;;;;;;5093527;28;20051;-86
2022/09/12 07:23:40;;;;;;;47.15;38.70;;;14.90;99.90;;;;;;5090041;28;20047;-85
2022/09/12 07:26:09;;;;;;;47.25;37.40;;;15.00;99.90;;;;;;5083232;28;20065;-85
2022/09/12 07:28:35;;;;;;;50.22;39.40;;;15.10;99.90;;;;;;5080535;28;20568;-85
2022/09/12 07:31:09;;;;;;;44.70;38.38;;;15.10;99.90;;;;;;5063847;28;20048;-86
2022/09/12 07:33:35;;;;;;;50.55;40.75;;;15.20;99.90;;;;;;5097694;28;20039;-85
2022/09/12 07:36:07;;;;;;;46.42;39.05;;;15.30;99.90;;;;;;5079203;28;20502;-86
2022/09/12 07:38:33;;;;;;;50.38;39.22;;;15.40;99.90;;;;;;5078769;28;20497;-84
2022/09/12 07:41:00;;;;;;;46.70;39.28;;;15.50;99.90;;;;;;5063251;28;20035;-86
2022/09/12 07:43:26;;;;;;;48.30;38.88;;;15.50;99.90;;;;;;5079168;28;20055;-85
2022/09/12 07:45:58;;;;;;;49.78;39.42;;;15.60;99.90;;;;;;5081657;28;20039;-83
2022/09/12 07:48:24;;;;;;;47.35;36.97;;;15.60;99.90;;;;;;5063450;28;20036;-84
2022/09/12 07:51:04;;;;;;;51.58;38.88;;;15.70;99.90;;;;;;5097026;28;20048;-84
2022/09/12 07:53:35;;;;;;;45.97;39.00;;;15.70;99.90;;;;;;5079216;28;20472;-84
2022/09/12 07:56:03;;;;;;;51.65;40.58;;;15.70;99.90;;;;;;5083205;28;20047;-85
2022/09/12 07:58:30;;;;;;;48.92;38.47;;;15.80;99.90;;;;;;5078817;28;20040;-84
2022/09/12 08:01:13;;;;;;;49.80;39.13;;;15.80;99.90;;;;;;5081751;28;20086;-85
2022/09/12 08:03:41;;;;;;;50.30;41.00;;;15.90;99.90;;;;;;5074070;28;20048;-83
2022/09/12 08:06:09;;;;;;;45.95;37.70;;;15.90;99.90;;;;;;5074294;28;20039;-83
2022/09/12 08:08:35;;;;;;;46.45;37.97;;;16.00;99.90;;;;;;5082048;28;20051;-84
2022/09/12 08:11:04;;;;;;;47.35;38.90;;;16.00;99.90;;;;;;5066368;28;20044;-85
2022/09/12 08:13:31;;;;;;;44.15;37.17;;;16.10;99.90;;;;;;5079196;28;20082;-84
2022/09/12 08:15:59;;;;;;;46.40;36.70;;;16.20;99.90;;;;;;5079860;28;20040;-84
2022/09/12 08:18:27;;;;;;;43.28;35.55;;;16.30;99.90;;;;;;5080132;28;20067;-84
2022/09/12 08:21:00;;;;;;;43.00;35.22;;;16.40;99.90;;;;;;5074429;28;20039;-84
2022/09/12 08:23:28;;;;;;;41.50;35.25;;;16.40;99.90;;;;;;5071338;28;20051;-84
2022/09/12 08:26:04;;;;;;;42.00;35.83;;;16.40;99.90;;;;;;5079024;28;20043;-84
2022/09/12 08:28:32;;;;;;;40.88;33.45;;;16.50;99.90;;;;;;5093749;28;20048;-84
2022/09/12 08:31:06;;;;;;;39.97;33.72;;;16.50;99.90;;;;;;5088128;28;20031;-83
2022/09/12 08:33:32;;;;;;;41.22;33.95;;;16.60;99.90;;;;;;5093423;28;20050;-84
2022/09/12 08:36:16;;;;;;;39.40;32.38;;;16.70;99.90;;;;;;5076367;28;20062;-84
2022/09/12 08:38:44;;;;;;;38.70;33.22;;;16.80;99.90;;;;;;5077139;28;20447;-83
2022/09/12 08:41:43;;;;;;;41.00;32.22;;;16.90;99.90;;;;;;5072633;28;20044;-83
2022/09/12 08:44:28;;;;;;;38.47;31.70;;;17.00;99.90;;;;;;5053954;28;20063;-84
2022/09/12 08:47:09;;;;;;;36.45;30.85;;;17.10;99.90;;;;;;5107249;28;20450;-84
2022/09/12 08:49:41;;;;;;;40.28;31.98;;;17.20;99.90;;;;;;5073915;28;20459;-83
2022/09/12 08:52:20;;;;;;;39.10;31.77;;;17.30;99.90;;;;;;5075298;28;20123;-84
2022/09/12 08:54:46;;;;;;;39.72;31.05;;;17.40;99.90;;;;;;5085692;28;20105;-84
2022/09/12 08:57:14;;;;;;;35.17;29.98;;;17.50;99.90;;;;;;5054128;28;20854;-84
2022/09/12 08:59:44;;;;;;;40.65;32.10;;;17.50;99.90;;;;;;5088114;28;20487;-84
2022/09/12 09:02:48;;;;;;;34.03;28.85;;;17.60;99.90;;;;;;5096570;28;20052;-84
2022/09/12 09:05:29;;;;;;;36.63;29.27;;;17.60;99.90;;;;;;5074793;28;20036;-85
2022/09/12 09:08:25;;;;;;;38.22;29.13;;;17.70;99.90;;;;;;5076466;28;20451;-84
2022/09/12 09:11:15;;;;;;;37.85;29.08;;;17.80;99.90;;;;;;5050271;28;20097;-83
2022/09/12 09:16:48;;;;;;;34.95;27.95;;;18.00;99.90;;;;;;5083178;28;20040;-84
2022/09/12 09:19:25;;;;;;;36.63;28.70;;;18.10;99.90;;;;;;5094602;28;20048;-85
2022/09/12 09:22:04;;;;;;;34.35;27.48;;;18.20;99.90;;;;;;5089234;28;20050;-84
2022/09/12 09:24:48;;;;;;;35.00;26.10;;;18.20;99.90;;;;;;5069992;28;20111;-84
2022/09/12 09:27:29;;;;;;;34.13;27.20;;;18.30;99.90;;;;;;5084792;28;20523;-84
2022/09/12 09:29:55;;;;;;;31.73;25.65;;;18.20;99.90;;;;;;5071151;28;20060;-83
2022/09/12 09:32:42;;;;;;;31.65;25.00;;;18.40;99.90;;;;;;5055992;28;20118;-84
2022/09/12 09:35:47;;;;;;;36.08;27.58;;;18.40;99.90;;;;;;5063448;28;20044;-83
2022/09/12 09:38:38;;;;;;;36.67;26.15;;;18.40;99.90;;;;;;5069469;28;20403;-84
2022/09/12 09:41:24;;;;;;;36.15;26.38;;;18.40;99.90;;;;;;5069083;28;20044;-86
2022/09/12 09:43:50;;;;;;;33.67;26.33;;;18.50;99.90;;;;;;5080480;28;20078;-84
2022/09/12 09:46:16;;;;;;;34.20;26.40;;;18.50;99.90;;;;;;5071467;28;20048;-84
2022/09/12 09:48:48;;;;;;;36.63;27.67;;;18.50;99.90;;;;;;5080350;28;20044;-84
2022/09/12 09:51:16;;;;;;;33.70;25.40;;;18.60;99.90;;;;;;5100302;28;20046;-84
2022/09/12 09:54:04;;;;;;;35.17;26.13;;;18.60;99.90;;;;;;5089353;28;20369;-84
2022/09/12 09:56:35;;;;;;;34.83;26.55;;;18.80;99.90;;;;;;5072405;28;20040;-86
2022/09/12 09:59:25;;;;;;;36.33;27.92;;;18.80;99.90;;;;;;5074297;28;20052;-84
2022/09/12 10:01:56;;;;;;;42.38;32.15;;;18.90;99.90;;;;;;5079286;28;20155;-84
2022/09/12 10:04:28;;;;;;;38.63;29.55;;;19.10;99.90;;;;;;5099658;28;20439;-83
2022/09/12 10:06:57;;;;;;;41.67;29.27;;;19.20;99.90;;;;;;5093311;28;20082;-84
2022/09/12 10:09:31;;;;;;;40.42;29.65;;;19.30;99.90;;;;;;5095534;28;20043;-84
2022/09/12 10:12:00;;;;;;;38.65;30.80;;;19.50;99.90;;;;;;5077369;28;20050;-83
2022/09/12 10:14:28;;;;;;;37.70;29.48;;;19.60;99.90;;;;;;5096936;28;20050;-83
2022/09/12 10:16:56;;;;;;;41.05;27.30;;;19.80;99.90;;;;;;5097257;28;20045;-83
2022/09/12 10:19:36;;;;;;;38.88;28.13;;;19.90;99.90;;;;;;5070155;28;20065;-83
2022/09/12 10:22:04;;;;;;;38.22;28.38;;;20.00;99.90;;;;;;5093210;28;20039;-84
2022/09/12 10:24:36;;;;;;;42.33;30.83;;;20.20;99.90;;;;;;5072267;28;20380;-83
2022/09/12 10:27:39;;;;;;;37.40;29.00;;;20.20;99.90;;;;;;5082900;28;20036;-83
2022/09/12 10:30:17;;;;;;;38.15;27.73;;;20.30;99.90;;;;;;5099424;28;20066;-83
2022/09/12 10:32:51;;;;;;;34.83;23.30;;;20.40;99.90;;;;;;5103681;28;20040;-83
2022/09/12 10:35:20;;;;;;;34.92;22.60;;;20.50;99.90;;;;;;5063817;28;20043;-83
2022/09/12 10:38:31;;;;;;;35.88;24.90;;;20.60;99.90;;;;;;5064635;28;20461;-85
2022/09/12 10:41:04;;;;;;;28.50;21.13;;;20.60;99.90;;;;;;5018279;28;20046;-87
2022/09/12 10:43:33;;;;;;;33.38;23.45;;;20.60;99.90;;;;;;5086760;28;20056;-86
2022/09/12 10:46:31;;;;;;;34.00;24.73;;;20.70;99.90;;;;;;5074547;28;20482;-86
2022/09/12 10:49:23;;;;;;;32.58;23.15;;;20.90;99.90;;;;;;5063971;28;20046;-85
2022/09/12 10:51:52;;;;;;;32.53;24.98;;;21.00;99.90;;;;;;5089863;28;20058;-84
2022/09/12 10:54:24;;;;;;;34.35;25.52;;;21.00;99.90;;;;;;5076433;28;20043;-82
2022/09/12 10:57:01;;;;;;;35.28;25.20;;;21.10;99.90;;;;;;5098168;28;20054;-84
2022/09/12 10:59:54;;;;;;;38.22;25.02;;;21.10;99.90;;;;;;5100792;28;20050;-84
2022/09/12 11:02:42;;;;;;;31.10;21.70;;;21.20;99.90;;;;;;5101400;28;20040;-85
2022/09/12 11:05:23;;;;;;;29.13;21.45;;;21.30;99.90;;;;;;5100886;28;20036;-84
2022/09/12 11:07:57;;;;;;;23.58;17.92;;;21.50;99.90;;;;;;5109921;28;20036;-83
2022/09/12 11:10:29;;;;;;;28.58;18.48;;;21.50;99.90;;;;;;5101401;28;20052;-82
2022/09/12 11:13:48;;;;;;;23.42;17.73;;;21.50;99.90;;;;;;5098429;28;20101;-84
2022/09/12 11:16:21;;;;;;;22.38;16.70;;;21.60;99.90;;;;;;5070114;28;20470;-84
2022/09/12 11:19:27;;;;;;;19.83;13.93;;;21.70;99.90;;;;;;5086137;28;20367;-84
2022/09/12 11:22:16;;;;;;;18.33;13.20;;;21.70;99.90;;;;;;5089442;28;20048;-84
2022/09/12 11:24:57;;;;;;;19.85;14.68;;;21.80;99.90;;;;;;5079441;28;20059;-83
2022/09/12 11:27:51;;;;;;;18.48;15.05;;;21.80;99.80;;;;;;5079803;28;20047;-85
2022/09/12 11:30:17;;;;;;;20.35;14.63;;;21.90;99.90;;;;;;5094303;28;20051;-83
2022/09/12 11:33:04;;;;;;;17.10;11.95;;;22.00;99.90;;;;;;5105870;28;20086;-84
2022/09/12 11:35:32;;;;;;;15.38;11.90;;;22.10;99.50;;;;;;5092349;28;20079;-82
2022/09/12 11:38:13;;;;;;;15.50;11.30;;;22.20;99.90;;;;;;5090415;28;20036;-83
2022/09/12 11:41:05;;;;;;;13.85;11.43;;;22.30;98.90;;;;;;5092377;28;20071;-82
2022/09/12 11:43:40;;;;;;;13.35;10.07;;;22.40;98.40;;;;;;5066390;28;20414;-84
2022/09/12 11:46:36;;;;;;;15.90;10.75;;;22.40;98.50;;;;;;5068872;28;20051;-83
2022/09/12 11:49:14;;;;;;;13.75;9.80;;;22.70;99.20;;;;;;5074474;28;20036;-84
2022/09/12 11:51:58;;;;;;;17.15;9.20;;;22.70;98.80;;;;;;5094110;28;20044;-82
2022/09/12 11:54:45;;;;;;;15.02;9.35;;;22.70;96.10;;;;;;5098434;28;20044;-83
2022/09/12 11:57:30;;;;;;;18.15;10.20;;;22.70;98.10;;;;;;5100670;28;20530;-83
2022/09/12 12:00:26;;;;;;;12.07;7.72;;;22.70;97.40;;;;;;5093807;28;20120;-83
2022/09/12 12:03:08;;;;;;;10.77;7.72;;;22.90;97.20;;;;;;5055590;28;20056;-82
2022/09/12 12:05:52;;;;;;;13.18;8.48;;;23.00;96.90;;;;;;5092689;28;20042;-83
2022/09/12 12:08:22;;;;;;;16.98;10.20;;;23.00;96.30;;;;;;5094628;28;20040;-83
2022/09/12 12:10:55;;;;;;;12.77;9.40;;;23.00;96.10;;;;;;5093662;28;20043;-83
2022/09/12 12:13:50;;;;;;;10.90;7.30;;;23.00;97.00;;;;;;5080547;28;20052;-82
2022/09/12 12:16:24;;;;;;;10.77;6.82;;;23.10;96.70;;;;;;5090576;28;20079;-82
2022/09/12 12:18:59;;;;;;;9.45;7.00;;;23.10;95.70;;;;;;5093566;28;20044;-83
2022/09/12 12:21:36;;;;;;;10.38;5.95;;;23.00;94.40;;;;;;5075368;28;20043;-83
2022/09/12 12:24:02;;;;;;;8.13;5.65;;;22.90;95.10;;;;;;5069082;28;20047;-84
2022/09/12 12:26:40;;;;;;;16.60;8.00;;;23.00;95.80;;;;;;5091751;28;20050;-84
2022/09/12 12:29:43;;;;;;;15.10;7.78;;;23.00;94.90;;;;;;5073374;28;20048;-84
2022/09/12 12:32:08;;;;;;;8.95;6.35;;;23.10;95.20;;;;;;5076020;28;20071;-84
2022/09/12 12:34:42;;;;;;;9.02;7.03;;;23.20;95.60;;;;;;5075353;28;20074;-83
2022/09/12 12:37:28;;;;;;;11.75;7.00;;;23.20;94.50;;;;;;5074055;28;20051;-84
2022/09/12 12:40:04;;;;;;;10.88;6.72;;;23.30;94.40;;;;;;5091494;28;20070;-82
2022/09/12 12:42:33;;;;;;;8.55;6.50;;;23.40;93.80;;;;;;5092172;28;20043;-84
2022/09/12 12:45:00;;;;;;;9.48;5.38;;;23.50;93.50;;;;;;5075326;28;20058;-83
2022/09/12 12:47:41;;;;;;;5.82;3.90;;;23.60;94.40;;;;;;5087476;28;20180;-84
2022/09/12 12:50:28;;;;;;;7.57;4.00;;;23.60;90.00;;;;;;5093483;28;20175;-84
2022/09/12 12:52:53;;;;;;;7.90;4.50;;;23.50;91.10;;;;;;5089096;28;20063;-83
2022/09/12 12:55:26;;;;;;;9.60;5.10;;;23.50;91.10;;;;;;5095600;28;20375;-84
2022/09/12 12:57:54;;;;;;;10.27;5.32;;;23.50;91.10;;;;;;5084629;28;20071;-83
2022/09/12 13:00:20;;;;;;;10.13;6.75;;;23.70;91.30;;;;;;5075430;28;20368;-83
2022/09/12 13:03:27;;;;;;;8.80;5.70;;;23.60;90.10;;;;;;5093977;28;20051;-83
2022/09/12 13:05:58;;;;;;;11.15;6.05;;;23.50;91.70;;;;;;5063516;28;20051;-83